sensor_id;sensor_type;location;lat;lon;timestamp;temperature;humidity
39621;DHT22;25309;48.686;9.170;2022-09-09T00:01:22;15.50;99.90
39621;DHT22;25309;48.686;9.170;2022-09-09T00:03:54;15.50;99.90
39621;DHT22;25309;48.686;9.170;2022-09-09T00:06:28;15.50;99.90
39621;DHT22;25309;48.686;9.170;2022-09-09T00:09:02;15.60;99.90
39621;DHT22;25309;48.686;9.170;2022-09-09T00:11:39;15.50;99.90
39621;DHT22;25309;48.686;9.170;2022-09-09T00:14:13;15.60;99.90
39621;DHT22;25309;48.686;9.170;2022-09-09T00:16:49;15.50;99.90
39621;DHT22;25309;48.686;9.170;2022-09-09T00:19:21;15.60;99.90
39621;DHT22;25309;48.686;9.170;2022-09-09T00:21:56;15.60;99.90
39621;DHT22;25309;48.686;9.170;2022-09-09T00:24:29;15.50;99.90
39621;DHT22;25309;48.686;9.170;2022-09-09T00:27:06;15.60;99.90
39621;DHT22;25309;48.686;9.170;2022-09-09T00:29:37;15.60;99.90
39621;DHT22;25309;48.686;9.170;2022-09-09T00:32:13;15.60;99.90
39621;DHT22;25309;48.686;9.170;2022-09-09T00:34:46;15.70;99.90
39621;DHT22;25309;48.686;9.170;2022-09-09T00:37:14;15.70;99.90
39621;DHT22;25309;48.686;9.170;2022-09-09T00:39:42;15.70;99.90
39621;DHT22;25309;48.686;9.170;2022-09-09T00:42:14;15.80;99.90
39621;DHT22;25309;48.686;9.170;2022-09-09T00:44:52;15.80;99.90
39621;DHT22;25309;48.686;9.170;2022-09-09T00:47:40;15.80;99.90
39621;DHT22;25309;48.686;9.170;2022-09-09T00:50:22;15.80;99.90
39621;DHT22;25309;48.686;9.170;2022-09-09T00:53:01;15.80;99.90
39621;DHT22;25309;48.686;9.170;2022-09-09T00:55:39;15.80;99.90
39621;DHT22;25309;48.686;9.170;2022-09-09T00:58:09;15.80;99.90
39621;DHT22;25309;48.686;9.170;2022-09-09T01:00:42;15.80;99.90
39621;DHT22;25309;48.686;9.170;2022-09-09T01:03:31;15.80;99.90
39621;DHT22;25309;48.686;9.170;2022-09-09T01:06:11;15.80;99.90
39621;DHT22;25309;48.686;9.170;2022-09-09T01:11:49;15.80;99.90
39621;DHT22;25309;48.686;9.170;2022-09-09T01:14:38;15.90;99.90
39621;DHT22;25309;48.686;9.170;2022-09-09T01:17:14;15.80;99.90
39621;DHT22;25309;48.686;9.170;2022-09-09T01:20:03;15.80;99.90
39621;DHT22;25309;48.686;9.170;2022-09-09T01:22:44;15.80;99.90
39621;DHT22;25309;48.686;9.170;2022-09-09T01:25:22;15.80;99.90
39621;DHT22;25309;48.686;9.170;2022-09-09T01:28:06;15.80;99.90
39621;DHT22;25309;48.686;9.170;2022-09-09T01:30:38;15.70;99.90
39621;DHT22;25309;48.686;9.170;2022-09-09T01:33:12;15.70;99.90
39621;DHT22;25309;48.686;9.170;2022-09-09T01:35:45;15.70;99.90
39621;DHT22;25309;48.686;9.170;2022-09-09T01:38:13;15.70;99.90
39621;DHT22;25309;48.686;9.170;2022-09-09T01:40:41;15.70;99.90
39621;DHT22;25309;48.686;9.170;2022-09-09T01:43:10;15.70;99.90
39621;DHT22;25309;48.686;9.170;2022-09-09T01:45:38;15.70;99.90
39621;DHT22;25309;48.686;9.170;2022-09-09T01:48:05;15.80;99.90
39621;DHT22;25309;48.686;9.170;2022-09-09T01:50:45;15.70;99.90
39621;DHT22;25309;48.686;9.170;2022-09-09T01:53:13;15.70;99.90
39621;DHT22;25309;48.686;9.170;2022-09-09T01:55:53;15.70;99.90
39621;DHT22;25309;48.686;9.170;2022-09-09T01:58:32;15.70;99.90
39621;DHT22;25309;48.686;9.170;2022-09-09T02:01:06;15.70;99.90
39621;DHT22;25309;48.686;9.170;2022-09-09T02:03:35;15.70;99.90
39621;DHT22;25309;48.686;9.170;2022-09-09T02:06:17;15.60;99.90
39621;DHT22;25309;48.686;9.170;2022-09-09T02:08:54;15.60;99.90
39621;DHT22;25309;48.686;9.170;2022-09-09T02:11:26;15.50;99.90
39621;DHT22;25309;48.686;9.170;2022-09-09T02:14:04;15.50;99.90
39621;DHT22;25309;48.686;9.170;2022-09-09T02:16:36;15.40;99.90
39621;DHT22;25309;48.686;9.170;2022-09-09T02:19:08;15.40;99.90
39621;DHT22;25309;48.686;9.170;2022-09-09T02:21:56;15.40;99.90
39621;DHT22;25309;48.686;9.170;2022-09-09T02:24:25;15.40;99.90
39621;DHT22;25309;48.686;9.170;2022-09-09T02:27:07;15.30;99.90
39621;DHT22;25309;48.686;9.170;2022-09-09T02:29:40;15.30;99.90
39621;DHT22;25309;48.686;9.170;2022-09-09T02:32:14;15.30;99.90
39621;DHT22;25309;48.686;9.170;2022-09-09T02:34:45;15.20;99.90
39621;DHT22;25309;48.686;9.170;2022-09-09T02:37:17;15.20;99.90
39621;DHT22;25309;48.686;9.170;2022-09-09T02:39:49;15.20;99.90
39621;DHT22;25309;48.686;9.170;2022-09-09T02:42:19;15.20;99.90
39621;DHT22;25309;48.686;9.170;2022-09-09T02:44:47;15.20;99.90
39621;DHT22;25309;48.686;9.170;2022-09-09T02:47:24;15.20;99.90
39621;DHT22;25309;48.686;9.170;2022-09-09T02:50:00;15.20;99.90
39621;DHT22;25309;48.686;9.170;2022-09-09T02:52:34;15.20;99.90
39621;DHT22;25309;48.686;9.170;2022-09-09T02:55:08;15.20;99.90
39621;DHT22;25309;48.686;9.170;2022-09-09T02:57:39;15.20;99.90
39621;DHT22;25309;48.686;9.170;2022-09-09T03:00:11;15.20;99.90
39621;DHT22;25309;48.686;9.170;2022-09-09T03:02:38;15.20;99.90
39621;DHT22;25309;48.686;9.170;2022-09-09T03:05:07;15.20;99.90
39621;DHT22;25309;48.686;9.170;2022-09-09T03:07:34;15.30;99.90
39621;DHT22;25309;48.686;9.170;2022-09-09T03:10:02;15.30;99.90
39621;DHT22;25309;48.686;9.170;2022-09-09T03:12:29;15.30;99.90
39621;DHT22;25309;48.686;9.170;2022-09-09T03:14:56;15.30;99.90
39621;DHT22;25309;48.686;9.170;2022-09-09T03:17:25;15.30;99.90
39621;DHT22;25309;48.686;9.170;2022-09-09T03:19:55;15.40;99.90
39621;DHT22;25309;48.686;9.170;2022-09-09T03:22:22;15.40;99.90
39621;DHT22;25309;48.686;9.170;2022-09-09T03:24:49;15.40;99.90
39621;DHT22;25309;48.686;9.170;2022-09-09T03:27:17;15.30;99.90
39621;DHT22;25309;48.686;9.170;2022-09-09T03:29:46;15.30;99.90
39621;DHT22;25309;48.686;9.170;2022-09-09T03:32:19;15.30;99.90
39621;DHT22;25309;48.686;9.170;2022-09-09T03:34:50;15.30;99.90
39621;DHT22;25309;48.686;9.170;2022-09-09T03:37:17;15.20;99.90
39621;DHT22;25309;48.686;9.170;2022-09-09T03:39:45;15.20;99.90
39621;DHT22;25309;48.686;9.170;2022-09-09T03:42:13;15.10;99.90
39621;DHT22;25309;48.686;9.170;2022-09-09T03:44:52;15.10;99.90
39621;DHT22;25309;48.686;9.170;2022-09-09T03:47:22;15.00;99.90
39621;DHT22;25309;48.686;9.170;2022-09-09T03:49:54;15.00;99.90
39621;DHT22;25309;48.686;9.170;2022-09-09T03:52:21;14.90;99.90
39621;DHT22;25309;48.686;9.170;2022-09-09T03:54:52;14.90;99.90
39621;DHT22;25309;48.686;9.170;2022-09-09T03:57:19;14.90;99.90
39621;DHT22;25309;48.686;9.170;2022-09-09T03:59:46;14.90;99.90
39621;DHT22;25309;48.686;9.170;2022-09-09T04:02:14;14.80;99.90
39621;DHT22;25309;48.686;9.170;2022-09-09T04:04:42;14.80;99.90
39621;DHT22;25309;48.686;9.170;2022-09-09T04:07:11;14.70;99.90
39621;DHT22;25309;48.686;9.170;2022-09-09T04:09:39;14.70;99.90
39621;DHT22;25309;48.686;9.170;2022-09-09T04:12:06;14.70;99.90
39621;DHT22;25309;48.686;9.170;2022-09-09T04:14:34;14.60;99.90
39621;DHT22;25309;48.686;9.170;2022-09-09T04:17:03;14.60;99.90
39621;DHT22;25309;48.686;9.170;2022-09-09T04:19:32;14.60;99.90
39621;DHT22;25309;48.686;9.170;2022-09-09T04:22:00;14.50;99.90
39621;DHT22;25309;48.686;9.170;2022-09-09T04:24:29;14.50;99.90
39621;DHT22;25309;48.686;9.170;2022-09-09T04:26:57;14.50;99.90
39621;DHT22;25309;48.686;9.170;2022-09-09T04:29:24;14.50;99.90
39621;DHT22;25309;48.686;9.170;2022-09-09T04:31:51;14.50;99.90
39621;DHT22;25309;48.686;9.170;2022-09-09T04:34:17;14.50;99.90
39621;DHT22;25309;48.686;9.170;2022-09-09T04:36:44;14.50;99.90
39621;DHT22;25309;48.686;9.170;2022-09-09T04:39:12;14.50;99.90
39621;DHT22;25309;48.686;9.170;2022-09-09T04:41:41;14.50;99.90
39621;DHT22;25309;48.686;9.170;2022-09-09T04:44:09;14.50;99.90
39621;DHT22;25309;48.686;9.170;2022-09-09T04:46:36;14.50;99.90
39621;DHT22;25309;48.686;9.170;2022-09-09T04:49:03;14.50;99.90
39621;DHT22;25309;48.686;9.170;2022-09-09T04:51:32;14.40;99.90
39621;DHT22;25309;48.686;9.170;2022-09-09T04:53:59;14.40;99.90
39621;DHT22;25309;48.686;9.170;2022-09-09T04:56:26;14.40;99.90
39621;DHT22;25309;48.686;9.170;2022-09-09T04:58:58;14.40;99.90
39621;DHT22;25309;48.686;9.170;2022-09-09T05:01:35;14.40;99.90
39621;DHT22;25309;48.686;9.170;2022-09-09T05:04:04;14.50;99.90
39621;DHT22;25309;48.686;9.170;2022-09-09T05:06:32;14.50;99.90
39621;DHT22;25309;48.686;9.170;2022-09-09T05:09:00;14.50;99.90
39621;DHT22;25309;48.686;9.170;2022-09-09T05:11:30;14.50;99.90
39621;DHT22;25309;48.686;9.170;2022-09-09T05:14:05;14.50;99.90
39621;DHT22;25309;48.686;9.170;2022-09-09T05:16:32;14.40;99.90
39621;DHT22;25309;48.686;9.170;2022-09-09T05:18:59;14.50;99.90
39621;DHT22;25309;48.686;9.170;2022-09-09T05:21:35;14.50;99.90
39621;DHT22;25309;48.686;9.170;2022-09-09T05:24:02;14.50;99.90
39621;DHT22;25309;48.686;9.170;2022-09-09T05:26:30;14.50;99.90
39621;DHT22;25309;48.686;9.170;2022-09-09T05:28:58;14.60;99.90
39621;DHT22;25309;48.686;9.170;2022-09-09T05:31:29;14.70;99.90
39621;DHT22;25309;48.686;9.170;2022-09-09T05:33:59;14.70;99.90
39621;DHT22;25309;48.686;9.170;2022-09-09T05:36:26;14.70;99.90
39621;DHT22;25309;48.686;9.170;2022-09-09T05:38:55;14.70;99.90
39621;DHT22;25309;48.686;9.170;2022-09-09T05:41:24;14.80;99.90
39621;DHT22;25309;48.686;9.170;2022-09-09T05:43:54;14.80;99.90
39621;DHT22;25309;48.686;9.170;2022-09-09T05:46:23;14.80;99.90
39621;DHT22;25309;48.686;9.170;2022-09-09T05:48:53;14.80;99.90
39621;DHT22;25309;48.686;9.170;2022-09-09T05:51:31;14.90;99.90
39621;DHT22;25309;48.686;9.170;2022-09-09T05:54:03;15.00;99.90
39621;DHT22;25309;48.686;9.170;2022-09-09T05:56:34;15.00;99.90
39621;DHT22;25309;48.686;9.170;2022-09-09T05:59:01;15.00;99.90
39621;DHT22;25309;48.686;9.170;2022-09-09T06:01:29;15.00;99.90
39621;DHT22;25309;48.686;9.170;2022-09-09T06:03:59;15.00;99.90
39621;DHT22;25309;48.686;9.170;2022-09-09T06:06:30;15.00;99.90
39621;DHT22;25309;48.686;9.170;2022-09-09T06:08:59;15.00;99.90
39621;DHT22;25309;48.686;9.170;2022-09-09T06:11:33;15.10;99.90
39621;DHT22;25309;48.686;9.170;2022-09-09T06:14:00;15.10;99.90
39621;DHT22;25309;48.686;9.170;2022-09-09T06:16:30;15.10;99.90
39621;DHT22;25309;48.686;9.170;2022-09-09T06:19:01;15.10;99.90
39621;DHT22;25309;48.686;9.170;2022-09-09T06:21:31;15.20;99.90
39621;DHT22;25309;48.686;9.170;2022-09-09T06:24:00;15.20;99.90
39621;DHT22;25309;48.686;9.170;2022-09-09T06:26:29;15.30;99.90
39621;DHT22;25309;48.686;9.170;2022-09-09T06:28:58;15.30;99.90
39621;DHT22;25309;48.686;9.170;2022-09-09T06:31:26;15.30;99.90
39621;DHT22;25309;48.686;9.170;2022-09-09T06:34:01;15.30;99.90
39621;DHT22;25309;48.686;9.170;2022-09-09T06:36:32;15.40;99.90
39621;DHT22;25309;48.686;9.170;2022-09-09T06:39:00;15.40;99.90
39621;DHT22;25309;48.686;9.170;2022-09-09T06:41:29;15.50;99.90
39621;DHT22;25309;48.686;9.170;2022-09-09T06:43:57;15.50;99.90
39621;DHT22;25309;48.686;9.170;2022-09-09T06:46:32;15.60;99.90
39621;DHT22;25309;48.686;9.170;2022-09-09T06:49:01;15.60;99.90
39621;DHT22;25309;48.686;9.170;2022-09-09T06:51:30;15.70;99.90
39621;DHT22;25309;48.686;9.170;2022-09-09T06:53:59;15.80;99.90
39621;DHT22;25309;48.686;9.170;2022-09-09T06:56:28;15.90;99.90
39621;DHT22;25309;48.686;9.170;2022-09-09T06:58:58;16.00;99.90
39621;DHT22;25309;48.686;9.170;2022-09-09T07:01:30;16.00;99.90
39621;DHT22;25309;48.686;9.170;2022-09-09T07:04:04;16.10;99.90
39621;DHT22;25309;48.686;9.170;2022-09-09T07:06:36;16.20;99.90
39621;DHT22;25309;48.686;9.170;2022-09-09T07:09:06;16.20;99.90
39621;DHT22;25309;48.686;9.170;2022-09-09T07:11:38;16.30;99.90
39621;DHT22;25309;48.686;9.170;2022-09-09T07:14:05;16.40;99.90
39621;DHT22;25309;48.686;9.170;2022-09-09T07:16:32;16.40;99.90
39621;DHT22;25309;48.686;9.170;2022-09-09T07:19:03;16.50;99.90
39621;DHT22;25309;48.686;9.170;2022-09-09T07:21:31;16.50;99.90
39621;DHT22;25309;48.686;9.170;2022-09-09T07:23:58;16.60;99.90
39621;DHT22;25309;48.686;9.170;2022-09-09T07:26:28;16.70;99.90
39621;DHT22;25309;48.686;9.170;2022-09-09T07:28:57;16.70;99.90
39621;DHT22;25309;48.686;9.170;2022-09-09T07:31:26;16.80;99.90
39621;DHT22;25309;48.686;9.170;2022-09-09T07:33:54;16.90;99.90
39621;DHT22;25309;48.686;9.170;2022-09-09T07:36:23;16.90;99.90
39621;DHT22;25309;48.686;9.170;2022-09-09T07:38:56;17.00;99.90
39621;DHT22;25309;48.686;9.170;2022-09-09T07:41:26;17.00;99.90
39621;DHT22;25309;48.686;9.170;2022-09-09T07:43:54;17.10;99.90
39621;DHT22;25309;48.686;9.170;2022-09-09T07:46:24;17.10;99.90
39621;DHT22;25309;48.686;9.170;2022-09-09T07:48:53;17.10;99.90
39621;DHT22;25309;48.686;9.170;2022-09-09T07:51:28;17.20;99.90
39621;DHT22;25309;48.686;9.170;2022-09-09T07:53:58;17.30;99.90
39621;DHT22;25309;48.686;9.170;2022-09-09T07:56:26;17.40;99.90
39621;DHT22;25309;48.686;9.170;2022-09-09T07:58:55;17.50;99.90
39621;DHT22;25309;48.686;9.170;2022-09-09T08:01:25;17.50;99.90
39621;DHT22;25309;48.686;9.170;2022-09-09T08:03:54;17.70;99.90
39621;DHT22;25309;48.686;9.170;2022-09-09T08:06:22;17.90;99.90
39621;DHT22;25309;48.686;9.170;2022-09-09T08:08:52;18.00;99.90
39621;DHT22;25309;48.686;9.170;2022-09-09T08:11:20;18.00;99.90
39621;DHT22;25309;48.686;9.170;2022-09-09T08:13:47;18.10;99.90
39621;DHT22;25309;48.686;9.170;2022-09-09T08:16:22;18.20;99.90
39621;DHT22;25309;48.686;9.170;2022-09-09T08:18:50;18.30;99.90
39621;DHT22;25309;48.686;9.170;2022-09-09T08:21:20;18.50;99.90
39621;DHT22;25309;48.686;9.170;2022-09-09T08:23:49;18.70;99.90
39621;DHT22;25309;48.686;9.170;2022-09-09T08:26:26;18.90;99.90
39621;DHT22;25309;48.686;9.170;2022-09-09T08:28:56;19.00;99.90
39621;DHT22;25309;48.686;9.170;2022-09-09T08:31:26;19.10;99.90
39621;DHT22;25309;48.686;9.170;2022-09-09T08:33:55;19.40;99.90
39621;DHT22;25309;48.686;9.170;2022-09-09T08:36:24;19.70;99.90
39621;DHT22;25309;48.686;9.170;2022-09-09T08:38:54;20.00;99.90
39621;DHT22;25309;48.686;9.170;2022-09-09T08:41:41;20.80;99.90
39621;DHT22;25309;48.686;9.170;2022-09-09T08:44:16;22.60;99.90
39621;DHT22;25309;48.686;9.170;2022-09-09T08:46:53;24.30;99.90
39621;DHT22;25309;48.686;9.170;2022-09-09T08:49:41;25.60;97.60
39621;DHT22;25309;48.686;9.170;2022-09-09T08:52:16;27.00;94.40
39621;DHT22;25309;48.686;9.170;2022-09-09T08:54:46;27.90;91.60
39621;DHT22;25309;48.686;9.170;2022-09-09T08:57:24;28.10;90.90
39621;DHT22;25309;48.686;9.170;2022-09-09T08:59:55;28.30;89.20
39621;DHT22;25309;48.686;9.170;2022-09-09T09:02:27;28.00;89.10
39621;DHT22;25309;48.686;9.170;2022-09-09T09:05:09;27.10;89.30
39621;DHT22;25309;48.686;9.170;2022-09-09T09:07:51;27.60;90.10
39621;DHT22;25309;48.686;9.170;2022-09-09T09:10:36;28.60;87.90
39621;DHT22;25309;48.686;9.170;2022-09-09T09:13:15;29.10;83.60
39621;DHT22;25309;48.686;9.170;2022-09-09T09:15:47;28.50;85.10
39621;DHT22;25309;48.686;9.170;2022-09-09T09:18:17;29.40;82.60
39621;DHT22;25309;48.686;9.170;2022-09-09T09:20:54;30.00;79.60
39621;DHT22;25309;48.686;9.170;2022-09-09T09:23:25;28.60;80.90
39621;DHT22;25309;48.686;9.170;2022-09-09T09:25:58;28.10;82.60
39621;DHT22;25309;48.686;9.170;2022-09-09T09:28:30;26.30;84.40
39621;DHT22;25309;48.686;9.170;2022-09-09T09:31:05;25.00;82.50
39621;DHT22;25309;48.686;9.170;2022-09-09T09:33:41;24.10;86.40
39621;DHT22;25309;48.686;9.170;2022-09-09T09:36:10;24.40;89.10
39621;DHT22;25309;48.686;9.170;2022-09-09T09:38:40;25.30;85.80
39621;DHT22;25309;48.686;9.170;2022-09-09T09:41:30;24.90;86.10
39621;DHT22;25309;48.686;9.170;2022-09-09T09:43:59;26.30;86.40
39621;DHT22;25309;48.686;9.170;2022-09-09T09:46:28;26.40;84.70
39621;DHT22;25309;48.686;9.170;2022-09-09T09:49:09;26.60;84.10
39621;DHT22;25309;48.686;9.170;2022-09-09T09:51:38;27.10;85.70
39621;DHT22;25309;48.686;9.170;2022-09-09T09:54:14;27.50;83.10
39621;DHT22;25309;48.686;9.170;2022-09-09T09:56:47;27.70;83.00
39621;DHT22;25309;48.686;9.170;2022-09-09T09:59:32;28.10;81.90
39621;DHT22;25309;48.686;9.170;2022-09-09T10:02:19;28.50;80.50
39621;DHT22;25309;48.686;9.170;2022-09-09T10:05:01;28.80;80.00
39621;DHT22;25309;48.686;9.170;2022-09-09T10:07:29;28.90;77.60
39621;DHT22;25309;48.686;9.170;2022-09-09T10:09:57;28.70;77.80
39621;DHT22;25309;48.686;9.170;2022-09-09T10:12:37;28.10;78.30
39621;DHT22;25309;48.686;9.170;2022-09-09T10:15:26;27.30;80.10
39621;DHT22;25309;48.686;9.170;2022-09-09T10:18:01;26.40;81.70
39621;DHT22;25309;48.686;9.170;2022-09-09T10:20:39;26.00;86.20
39621;DHT22;25309;48.686;9.170;2022-09-09T10:23:22;25.90;86.40
39621;DHT22;25309;48.686;9.170;2022-09-09T10:26:19;26.10;85.10
39621;DHT22;25309;48.686;9.170;2022-09-09T10:29:06;25.90;83.40
39621;DHT22;25309;48.686;9.170;2022-09-09T10:31:45;26.00;86.20
39621;DHT22;25309;48.686;9.170;2022-09-09T10:34:26;26.20;85.20
39621;DHT22;25309;48.686;9.170;2022-09-09T10:36:59;26.50;82.80
39621;DHT22;25309;48.686;9.170;2022-09-09T10:39:34;26.80;83.10
39621;DHT22;25309;48.686;9.170;2022-09-09T10:42:11;26.70;82.90
39621;DHT22;25309;48.686;9.170;2022-09-09T10:44:52;26.40;82.00
39621;DHT22;25309;48.686;9.170;2022-09-09T10:47:43;26.70;83.70
39621;DHT22;25309;48.686;9.170;2022-09-09T10:53:40;28.00;80.10
39621;DHT22;25309;48.686;9.170;2022-09-09T10:56:11;28.00;79.20
39621;DHT22;25309;48.686;9.170;2022-09-09T10:58:44;27.90;77.20
39621;DHT22;25309;48.686;9.170;2022-09-09T11:01:18;27.70;78.20
39621;DHT22;25309;48.686;9.170;2022-09-09T11:03:51;27.70;81.30
39621;DHT22;25309;48.686;9.170;2022-09-09T11:06:21;27.80;83.10
39621;DHT22;25309;48.686;9.170;2022-09-09T11:08:52;28.10;80.20
39621;DHT22;25309;48.686;9.170;2022-09-09T11:11:28;27.80;79.50
39621;DHT22;25309;48.686;9.170;2022-09-09T11:13:59;27.30;80.10
39621;DHT22;25309;48.686;9.170;2022-09-09T11:16:30;26.70;81.40
39621;DHT22;25309;48.686;9.170;2022-09-09T11:19:07;26.00;82.30
39621;DHT22;25309;48.686;9.170;2022-09-09T11:21:43;25.40;84.20
39621;DHT22;25309;48.686;9.170;2022-09-09T11:24:15;24.60;95.40
39621;DHT22;25309;48.686;9.170;2022-09-09T11:26:47;23.60;93.10
39621;DHT22;25309;48.686;9.170;2022-09-09T11:29:46;22.50;97.50
39621;DHT22;25309;48.686;9.170;2022-09-09T11:32:31;21.50;97.60
39621;DHT22;25309;48.686;9.170;2022-09-09T11:35:24;21.00;96.80
39621;DHT22;25309;48.686;9.170;2022-09-09T11:38:10;20.60;96.10
39621;DHT22;25309;48.686;9.170;2022-09-09T11:40:41;20.70;97.20
39621;DHT22;25309;48.686;9.170;2022-09-09T11:43:11;20.90;96.50
39621;DHT22;25309;48.686;9.170;2022-09-09T11:45:40;21.00;94.90
39621;DHT22;25309;48.686;9.170;2022-09-09T11:48:22;21.10;94.90
39621;DHT22;25309;48.686;9.170;2022-09-09T11:51:02;21.40;95.00
39621;DHT22;25309;48.686;9.170;2022-09-09T11:53:32;21.60;93.70
39621;DHT22;25309;48.686;9.170;2022-09-09T11:56:09;21.70;92.90
39621;DHT22;25309;48.686;9.170;2022-09-09T11:58:42;21.60;92.70
39621;DHT22;25309;48.686;9.170;2022-09-09T12:01:14;21.50;92.40
39621;DHT22;25309;48.686;9.170;2022-09-09T12:03:44;21.50;92.80
39621;DHT22;25309;48.686;9.170;2022-09-09T12:06:16;21.40;92.00
39621;DHT22;25309;48.686;9.170;2022-09-09T12:08:48;21.30;91.40
39621;DHT22;25309;48.686;9.170;2022-09-09T12:11:24;21.10;91.90
39621;DHT22;25309;48.686;9.170;2022-09-09T12:13:56;21.30;92.00
39621;DHT22;25309;48.686;9.170;2022-09-09T12:16:31;21.50;92.00
39621;DHT22;25309;48.686;9.170;2022-09-09T12:19:04;21.60;91.20
39621;DHT22;25309;48.686;9.170;2022-09-09T12:21:39;21.80;91.40
39621;DHT22;25309;48.686;9.170;2022-09-09T12:24:09;22.40;90.80
39621;DHT22;25309;48.686;9.170;2022-09-09T12:26:39;22.60;88.40
39621;DHT22;25309;48.686;9.170;2022-09-09T12:29:16;22.80;88.10
39621;DHT22;25309;48.686;9.170;2022-09-09T12:31:53;23.20;87.90
39621;DHT22;25309;48.686;9.170;2022-09-09T12:34:32;23.50;85.50
39621;DHT22;25309;48.686;9.170;2022-09-09T12:37:08;23.60;84.20
39621;DHT22;25309;48.686;9.170;2022-09-09T12:39:43;23.30;84.90
39621;DHT22;25309;48.686;9.170;2022-09-09T12:42:19;23.00;84.90
39621;DHT22;25309;48.686;9.170;2022-09-09T12:44:54;22.70;85.90
39621;DHT22;25309;48.686;9.170;2022-09-09T12:47:29;22.60;87.00
39621;DHT22;25309;48.686;9.170;2022-09-09T12:49:58;23.00;87.70
39621;DHT22;25309;48.686;9.170;2022-09-09T12:52:30;23.30;86.80
39621;DHT22;25309;48.686;9.170;2022-09-09T12:55:00;23.20;87.80
39621;DHT22;25309;48.686;9.170;2022-09-09T12:57:33;23.40;87.40
39621;DHT22;25309;48.686;9.170;2022-09-09T13:00:06;23.50;86.80
39621;DHT22;25309;48.686;9.170;2022-09-09T13:02:34;23.30;86.40
39621;DHT22;25309;48.686;9.170;2022-09-09T13:05:15;22.80;85.40
39621;DHT22;25309;48.686;9.170;2022-09-09T13:07:44;22.50;87.40
39621;DHT22;25309;48.686;9.170;2022-09-09T13:10:12;22.30;87.50
39621;DHT22;25309;48.686;9.170;2022-09-09T13:12:51;22.10;85.10
39621;DHT22;25309;48.686;9.170;2022-09-09T13:15:21;21.90;85.60
39621;DHT22;25309;48.686;9.170;2022-09-09T13:17:54;21.80;85.70
39621;DHT22;25309;48.686;9.170;2022-09-09T13:20:23;21.80;86.00
39621;DHT22;25309;48.686;9.170;2022-09-09T13:22:52;21.90;86.60
39621;DHT22;25309;48.686;9.170;2022-09-09T13:25:22;22.10;85.70
39621;DHT22;25309;48.686;9.170;2022-09-09T13:27:58;22.50;85.20
39621;DHT22;25309;48.686;9.170;2022-09-09T13:30:27;22.80;85.30
39621;DHT22;25309;48.686;9.170;2022-09-09T13:33:06;23.10;85.00
39621;DHT22;25309;48.686;9.170;2022-09-09T13:35:33;23.40;83.90
39621;DHT22;25309;48.686;9.170;2022-09-09T13:38:08;23.70;83.70
39621;DHT22;25309;48.686;9.170;2022-09-09T13:40:38;23.90;83.50
39621;DHT22;25309;48.686;9.170;2022-09-09T13:43:10;24.00;83.10
39621;DHT22;25309;48.686;9.170;2022-09-09T13:45:53;23.90;82.80
39621;DHT22;25309;48.686;9.170;2022-09-09T13:48:20;23.70;83.70
39621;DHT22;25309;48.686;9.170;2022-09-09T13:50:55;23.60;83.50
39621;DHT22;25309;48.686;9.170;2022-09-09T13:53:23;23.50;84.00
39621;DHT22;25309;48.686;9.170;2022-09-09T13:55:50;23.50;83.80
39621;DHT22;25309;48.686;9.170;2022-09-09T13:58:19;23.50;83.70
39621;DHT22;25309;48.686;9.170;2022-09-09T14:00:46;23.60;83.70
39621;DHT22;25309;48.686;9.170;2022-09-09T14:03:13;23.70;82.80
39621;DHT22;25309;48.686;9.170;2022-09-09T14:05:40;23.80;81.60
39621;DHT22;25309;48.686;9.170;2022-09-09T14:08:16;23.90;81.30
39621;DHT22;25309;48.686;9.170;2022-09-09T14:10:48;23.90;80.60
39621;DHT22;25309;48.686;9.170;2022-09-09T14:13:15;23.80;80.00
39621;DHT22;25309;48.686;9.170;2022-09-09T14:15:42;23.70;81.40
39621;DHT22;25309;48.686;9.170;2022-09-09T14:18:11;23.90;79.40
39621;DHT22;25309;48.686;9.170;2022-09-09T14:20:38;24.10;78.60
39621;DHT22;25309;48.686;9.170;2022-09-09T14:23:05;23.90;78.20
39621;DHT22;25309;48.686;9.170;2022-09-09T14:25:33;23.90;77.90
39621;DHT22;25309;48.686;9.170;2022-09-09T14:28:01;23.90;78.60
39621;DHT22;25309;48.686;9.170;2022-09-09T14:30:28;23.90;77.40
39621;DHT22;25309;48.686;9.170;2022-09-09T14:32:55;23.70;77.20
39621;DHT22;25309;48.686;9.170;2022-09-09T14:35:22;23.40;76.40
39621;DHT22;25309;48.686;9.170;2022-09-09T14:37:49;23.40;76.60
39621;DHT22;25309;48.686;9.170;2022-09-09T14:40:16;23.60;77.50
39621;DHT22;25309;48.686;9.170;2022-09-09T14:42:43;23.80;75.10
39621;DHT22;25309;48.686;9.170;2022-09-09T14:45:12;23.50;75.30
39621;DHT22;25309;48.686;9.170;2022-09-09T14:47:39;23.30;75.60
39621;DHT22;25309;48.686;9.170;2022-09-09T14:50:06;23.20;75.70
39621;DHT22;25309;48.686;9.170;2022-09-09T14:52:34;23.20;75.80
39621;DHT22;25309;48.686;9.170;2022-09-09T14:55:01;23.20;75.00
39621;DHT22;25309;48.686;9.170;2022-09-09T14:57:28;23.30;75.50
39621;DHT22;25309;48.686;9.170;2022-09-09T14:59:55;23.50;76.30
39621;DHT22;25309;48.686;9.170;2022-09-09T15:02:24;23.60;75.00
39621;DHT22;25309;48.686;9.170;2022-09-09T15:04:51;23.70;75.40
39621;DHT22;25309;48.686;9.170;2022-09-09T15:07:19;23.80;75.40
39621;DHT22;25309;48.686;9.170;2022-09-09T15:09:46;23.80;74.90
39621;DHT22;25309;48.686;9.170;2022-09-09T15:12:15;23.80;75.30
39621;DHT22;25309;48.686;9.170;2022-09-09T15:14:41;23.90;75.50
39621;DHT22;25309;48.686;9.170;2022-09-09T15:17:09;23.90;75.50
39621;DHT22;25309;48.686;9.170;2022-09-09T15:19:37;23.80;76.30
39621;DHT22;25309;48.686;9.170;2022-09-09T15:36:17;23.80;77.50
39621;DHT22;25309;48.686;9.170;2022-09-09T15:38:45;23.70;77.50
39621;DHT22;25309;48.686;9.170;2022-09-09T15:41:12;23.60;78.20
39621;DHT22;25309;48.686;9.170;2022-09-09T15:43:43;23.40;76.20
39621;DHT22;25309;48.686;9.170;2022-09-09T15:46:26;23.10;76.00
39621;DHT22;25309;48.686;9.170;2022-09-09T15:48:55;22.70;76.70
39621;DHT22;25309;48.686;9.170;2022-09-09T15:51:25;22.40;77.30
39621;DHT22;25309;48.686;9.170;2022-09-09T15:54:11;22.10;77.40
39621;DHT22;25309;48.686;9.170;2022-09-09T15:56:39;21.90;78.30
39621;DHT22;25309;48.686;9.170;2022-09-09T15:59:07;21.70;79.20
39621;DHT22;25309;48.686;9.170;2022-09-09T16:01:34;21.60;79.70
39621;DHT22;25309;48.686;9.170;2022-09-09T16:04:02;21.50;80.30
39621;DHT22;25309;48.686;9.170;2022-09-09T16:06:32;21.30;80.90
39621;DHT22;25309;48.686;9.170;2022-09-09T16:09:01;21.20;81.70
39621;DHT22;25309;48.686;9.170;2022-09-09T16:11:30;21.10;82.20
39621;DHT22;25309;48.686;9.170;2022-09-09T16:13:59;21.00;82.40
39621;DHT22;25309;48.686;9.170;2022-09-09T16:16:28;21.00;83.00
39621;DHT22;25309;48.686;9.170;2022-09-09T16:18:57;20.90;82.60
39621;DHT22;25309;48.686;9.170;2022-09-09T16:21:26;20.80;83.00